sensor_id;sensor_type;location;lat;lon;timestamp;pressure;altitude;pressure_sealevel;temperature;humidity
21504;BME280;10913;51.992;9.228;2022-09-25T00:01:13;100038.13;;;13.59;100.00
21504;BME280;10913;51.992;9.228;2022-09-25T00:03:39;100035.50;;;13.59;100.00
21504;BME280;10913;51.992;9.228;2022-09-25T00:06:08;100036.44;;;13.56;100.00
21504;BME280;10913;51.992;9.228;2022-09-25T00:08:34;100035.53;;;13.57;100.00
21504;BME280;10913;51.992;9.228;2022-09-25T00:11:04;100045.16;;;13.60;100.00
21504;BME280;10913;51.992;9.228;2022-09-25T00:13:30;100033.63;;;13.61;100.00
21504;BME280;10913;51.992;9.228;2022-09-25T00:15:56;100036.28;;;13.61;100.00
21504;BME280;10913;51.992;9.228;2022-09-25T00:18:23;100030.19;;;13.59;100.00
21504;BME280;10913;51.992;9.228;2022-09-25T00:21:09;100032.75;;;13.60;100.00
21504;BME280;10913;51.992;9.228;2022-09-25T00:23:39;100031.00;;;13.59;100.00
21504;BME280;10913;51.992;9.228;2022-09-25T00:26:06;100032.91;;;13.56;100.00
21504;BME280;10913;51.992;9.228;2022-09-25T00:28:38;100035.56;;;13.56;100.00
21504;BME280;10913;51.992;9.228;2022-09-25T00:31:05;100037.34;;;13.55;100.00
21504;BME280;10913;51.992;9.228;2022-09-25T00:33:32;100035.56;;;13.56;100.00
21504;BME280;10913;51.992;9.228;2022-09-25T00:36:05;100032.03;;;13.55;100.00
21504;BME280;10913;51.992;9.228;2022-09-25T00:38:32;100029.44;;;13.52;100.00
21504;BME280;10913;51.992;9.228;2022-09-25T00:40:59;100023.25;;;13.52;100.00
21504;BME280;10913;51.992;9.228;2022-09-25T00:43:37;100023.25;;;13.52;100.00
21504;BME280;10913;51.992;9.228;2022-09-25T00:46:08;100024.13;;;13.52;100.00
21504;BME280;10913;51.992;9.228;2022-09-25T00:48:36;100023.25;;;13.52;100.00
21504;BME280;10913;51.992;9.228;2022-09-25T00:51:04;100024.13;;;13.52;100.00
21504;BME280;10913;51.992;9.228;2022-09-25T00:53:36;100030.31;;;13.53;100.00
21504;BME280;10913;51.992;9.228;2022-09-25T00:56:04;100024.13;;;13.52;100.00
21504;BME280;10913;51.992;9.228;2022-09-25T00:58:33;100023.25;;;13.52;100.00
21504;BME280;10913;51.992;9.228;2022-09-25T01:01:01;100017.94;;;13.52;100.00
21504;BME280;10913;51.992;9.228;2022-09-25T01:03:27;100025.91;;;13.52;100.00
21504;BME280;10913;51.992;9.228;2022-09-25T01:05:53;100022.38;;;13.51;100.00
21504;BME280;10913;51.992;9.228;2022-09-25T01:08:22;100027.69;;;13.51;100.00
21504;BME280;10913;51.992;9.228;2022-09-25T01:10:49;100029.47;;;13.51;100.00
21504;BME280;10913;51.992;9.228;2022-09-25T01:13:15;100030.34;;;13.51;100.00
21504;BME280;10913;51.992;9.228;2022-09-25T01:21:08;100037.44;;;13.51;100.00
21504;BME280;10913;51.992;9.228;2022-09-25T01:34:24;100025.25;;;13.40;100.00
21504;BME280;10913;51.992;9.228;2022-09-25T01:36:56;100034.13;;;13.39;100.00
21504;BME280;10913;51.992;9.228;2022-09-25T01:39:31;100044.72;;;13.41;100.00
21504;BME280;10913;51.992;9.228;2022-09-25T01:42:16;100037.63;;;13.41;100.00
21504;BME280;10913;51.992;9.228;2022-09-25T01:44:45;100042.06;;;13.41;100.00
21504;BME280;10913;51.992;9.228;2022-09-25T01:47:20;100042.03;;;13.42;100.00
21504;BME280;10913;51.992;9.228;2022-09-25T01:49:50;100037.63;;;13.41;100.00
21504;BME280;10913;51.992;9.228;2022-09-25T01:52:21;100042.03;;;13.42;100.00
21504;BME280;10913;51.992;9.228;2022-09-25T01:54:53;100043.84;;;13.40;100.00
21504;BME280;10913;51.992;9.228;2022-09-25T01:57:26;100046.50;;;13.40;100.00
21504;BME280;10913;51.992;9.228;2022-09-25T02:00:05;100042.94;;;13.41;100.00
21504;BME280;10913;51.992;9.228;2022-09-25T02:02:38;100041.19;;;13.40;100.00
21504;BME280;10913;51.992;9.228;2022-09-25T02:05:13;100031.47;;;13.39;100.00
21504;BME280;10913;51.992;9.228;2022-09-25T02:07:50;100034.13;;;13.39;100.00
21504;BME280;10913;51.992;9.228;2022-09-25T02:10:23;100035.91;;;13.39;100.00
21504;BME280;10913;51.992;9.228;2022-09-25T02:12:55;100028.88;;;13.38;100.00
21504;BME280;10913;51.992;9.228;2022-09-25T02:15:36;100033.31;;;13.37;100.00
21504;BME280;10913;51.992;9.228;2022-09-25T02:18:04;100030.66;;;13.37;100.00
21504;BME280;10913;51.992;9.228;2022-09-25T02:20:54;100034.22;;;13.36;100.00
21504;BME280;10913;51.992;9.228;2022-09-25T02:26:21;100028.06;;;13.34;100.00
21504;BME280;10913;51.992;9.228;2022-09-25T02:28:48;100030.75;;;13.33;100.00
21504;BME280;10913;51.992;9.228;2022-09-25T02:31:14;100035.19;;;13.32;100.00
21504;BME280;10913;51.992;9.228;2022-09-25T02:33:41;100029.88;;;13.32;100.00
21504;BME280;10913;51.992;9.228;2022-09-25T02:36:17;100032.53;;;13.32;100.00
21504;BME280;10913;51.992;9.228;2022-09-25T02:38:43;100041.38;;;13.33;100.00
21504;BME280;10913;51.992;9.228;2022-09-25T02:48:56;100041.41;;;13.31;100.00
21504;BME280;10913;51.992;9.228;2022-09-25T02:51:28;100040.53;;;13.31;100.00
21504;BME280;10913;51.992;9.228;2022-09-25T02:54:21;100039.63;;;13.32;100.00
21504;BME280;10913;51.992;9.228;2022-09-25T02:59:31;100036.09;;;13.31;100.00
21504;BME280;10913;51.992;9.228;2022-09-25T03:01:58;100039.66;;;13.30;100.00
21504;BME280;10913;51.992;9.228;2022-09-25T03:04:25;100037.91;;;13.29;100.00
21504;BME280;10913;51.992;9.228;2022-09-25T03:06:51;100029.94;;;13.29;100.00
21504;BME280;10913;51.992;9.228;2022-09-25T03:09:19;100037.00;;;13.30;100.00
21504;BME280;10913;51.992;9.228;2022-09-25T03:11:46;100036.16;;;13.28;100.00
21504;BME280;10913;51.992;9.228;2022-09-25T03:14:11;100025.56;;;13.28;100.00
21504;BME280;10913;51.992;9.228;2022-09-25T03:19:03;100032.66;;;13.26;100.00
21504;BME280;10913;51.992;9.228;2022-09-25T03:21:29;100028.25;;;13.25;100.00
21504;BME280;10913;51.992;9.228;2022-09-25T03:23:54;100036.28;;;13.22;100.00
21504;BME280;10913;51.992;9.228;2022-09-25T03:26:22;100044.28;;;13.21;100.00
21504;BME280;10913;51.992;9.228;2022-09-25T03:28:48;100039.84;;;13.21;100.00
21504;BME280;10913;51.992;9.228;2022-09-25T03:31:13;100037.19;;;13.21;100.00
21504;BME280;10913;51.992;9.228;2022-09-25T03:33:40;100038.97;;;13.21;100.00
21504;BME280;10913;51.992;9.228;2022-09-25T03:36:13;100037.19;;;13.21;100.00
21504;BME280;10913;51.992;9.228;2022-09-25T03:38:39;100038.09;;;13.20;100.00
21504;BME280;10913;51.992;9.228;2022-09-25T03:41:11;100036.34;;;13.19;100.00
21504;BME280;10913;51.992;9.228;2022-09-25T03:43:38;100025.81;;;13.18;100.00
21504;BME280;10913;51.992;9.228;2022-09-25T03:46:05;100032.88;;;13.17;100.00
21504;BME280;10913;51.992;9.228;2022-09-25T03:48:32;100027.56;;;13.17;100.00
21504;BME280;10913;51.992;9.228;2022-09-25T03:50:58;100032.00;;;13.17;100.00
21504;BME280;10913;51.992;9.228;2022-09-25T03:53:25;100029.38;;;13.15;100.00
21504;BME280;10913;51.992;9.228;2022-09-25T03:55:51;100021.44;;;13.15;100.00
21504;BME280;10913;51.992;9.228;2022-09-25T03:58:16;100029.38;;;13.15;100.00
21504;BME280;10913;51.992;9.228;2022-09-25T04:00:43;100026.72;;;13.15;100.00
21504;BME280;10913;51.992;9.228;2022-09-25T04:03:10;100022.31;;;13.14;100.00
21504;BME280;10913;51.992;9.228;2022-09-25T04:05:35;100024.97;;;13.13;100.00
21504;BME280;10913;51.992;9.228;2022-09-25T04:08:01;100031.22;;;13.10;100.00
21504;BME280;10913;51.992;9.228;2022-09-25T04:10:27;100026.81;;;13.09;100.00
21504;BME280;10913;51.992;9.228;2022-09-25T04:12:52;100028.63;;;13.07;100.00
21504;BME280;10913;51.992;9.228;2022-09-25T04:15:19;100029.53;;;13.06;100.00
21504;BME280;10913;51.992;9.228;2022-09-25T04:17:47;100027.75;;;13.06;100.00
21504;BME280;10913;51.992;9.228;2022-09-25T04:20:13;100024.22;;;13.06;100.00
21504;BME280;10913;51.992;9.228;2022-09-25T04:22:38;100021.59;;;13.04;100.00
21504;BME280;10913;51.992;9.228;2022-09-25T04:25:04;100024.28;;;13.03;100.00
21504;BME280;10913;51.992;9.228;2022-09-25T04:27:29;100026.09;;;13.01;100.00
21504;BME280;10913;51.992;9.228;2022-09-25T04:29:55;100023.44;;;13.01;100.00
21504;BME280;10913;51.992;9.228;2022-09-25T04:32:21;100019.97;;;12.99;100.00
21504;BME280;10913;51.992;9.228;2022-09-25T04:35:05;100016.47;;;12.98;100.00
21504;BME280;10913;51.992;9.228;2022-09-25T04:37:30;100016.50;;;12.95;100.00
21504;BME280;10913;51.992;9.228;2022-09-25T04:39:56;100019.19;;;12.94;100.00
21504;BME280;10913;51.992;9.228;2022-09-25T04:42:23;100009.53;;;12.91;100.00
21504;BME280;10913;51.992;9.228;2022-09-25T04:44:56;100008.72;;;12.88;100.00
21504;BME280;10913;51.992;9.228;2022-09-25T04:47:23;100012.25;;;12.87;100.00
21504;BME280;10913;51.992;9.228;2022-09-25T04:49:49;100010.50;;;12.86;100.00
21504;BME280;10913;51.992;9.228;2022-09-25T04:52:16;100014.97;;;12.84;100.00
21504;BME280;10913;51.992;9.228;2022-09-25T04:54:42;100017.63;;;12.84;100.00
21504;BME280;10913;51.992;9.228;2022-09-25T04:57:09;100015.91;;;12.81;100.00
21504;BME280;10913;51.992;9.228;2022-09-25T04:59:35;100013.34;;;12.78;100.00
21504;BME280;10913;51.992;9.228;2022-09-25T05:02:01;100018.66;;;12.76;100.00
21504;BME280;10913;51.992;9.228;2022-09-25T05:04:26;100024.00;;;12.75;100.00
21504;BME280;10913;51.992;9.228;2022-09-25T05:06:52;100024.00;;;12.75;100.00
21504;BME280;10913;51.992;9.228;2022-09-25T05:09:18;100018.69;;;12.75;100.00
21504;BME280;10913;51.992;9.228;2022-09-25T05:11:45;100019.56;;;12.75;100.00
21504;BME280;10913;51.992;9.228;2022-09-25T05:14:11;100024.88;;;12.75;100.00
21504;BME280;10913;51.992;9.228;2022-09-25T05:16:36;100023.09;;;12.76;100.00
21504;BME280;10913;51.992;9.228;2022-09-25T05:19:01;100026.66;;;12.75;100.00
21504;BME280;10913;51.992;9.228;2022-09-25T05:21:27;100021.31;;;12.76;100.00
21504;BME280;10913;51.992;9.228;2022-09-25T05:23:53;100027.50;;;12.77;100.00
21504;BME280;10913;51.992;9.228;2022-09-25T05:26:21;100027.53;;;12.75;100.00
21504;BME280;10913;51.992;9.228;2022-09-25T05:28:48;100022.22;;;12.75;100.00
21504;BME280;10913;51.992;9.228;2022-09-25T05:31:14;100028.41;;;12.76;100.00
21504;BME280;10913;51.992;9.228;2022-09-25T05:33:40;100024.84;;;12.77;100.00
21504;BME280;10913;51.992;9.228;2022-09-25T05:36:06;100025.75;;;12.76;100.00
21504;BME280;10913;51.992;9.228;2022-09-25T05:38:33;100027.53;;;12.75;100.00
21504;BME280;10913;51.992;9.228;2022-09-25T05:41:03;100026.63;;;12.76;100.00
21504;BME280;10913;51.992;9.228;2022-09-25T05:43:30;100026.63;;;12.76;100.00
21504;BME280;10913;51.992;9.228;2022-09-25T05:45:56;100023.94;;;12.78;100.00
21504;BME280;10913;51.992;9.228;2022-09-25T05:48:22;100033.69;;;12.77;100.00
21504;BME280;10913;51.992;9.228;2022-09-25T05:50:55;100026.63;;;12.76;100.00
21504;BME280;10913;51.992;9.228;2022-09-25T05:53:21;100032.81;;;12.77;100.00
21504;BME280;10913;51.992;9.228;2022-09-25T05:55:51;100036.25;;;12.79;100.00
21504;BME280;10913;51.992;9.228;2022-09-25T05:58:17;100027.41;;;12.80;100.00
21504;BME280;10913;51.992;9.228;2022-09-25T06:00:43;100030.03;;;12.82;100.00
21504;BME280;10913;51.992;9.228;2022-09-25T06:03:09;100018.56;;;12.81;100.00
21504;BME280;10913;51.992;9.228;2022-09-25T06:05:35;100022.94;;;12.84;100.00
21504;BME280;10913;51.992;9.228;2022-09-25T06:08:01;100031.72;;;12.86;100.00
21504;BME280;10913;51.992;9.228;2022-09-25T06:10:26;100021.13;;;12.86;100.00
21504;BME280;10913;51.992;9.228;2022-09-25T06:12:59;100023.78;;;12.86;100.00
21504;BME280;10913;51.992;9.228;2022-09-25T06:15:28;100023.75;;;12.87;100.00
21504;BME280;10913;51.992;9.228;2022-09-25T06:17:57;100015.75;;;12.89;100.00
21504;BME280;10913;51.992;9.228;2022-09-25T06:20:22;100019.25;;;12.91;100.00
21504;BME280;10913;51.992;9.228;2022-09-25T06:22:58;100022.69;;;12.96;100.00
21504;BME280;10913;51.992;9.228;2022-09-25T06:25:29;100018.22;;;12.98;100.00
21504;BME280;10913;51.992;9.228;2022-09-25T06:27:55;100015.50;;;13.01;100.00
21504;BME280;10913;51.992;9.228;2022-09-25T06:30:23;100008.34;;;13.04;100.00
21504;BME280;10913;51.992;9.228;2022-09-25T06:32:58;100011.81;;;13.08;100.00
21504;BME280;10913;51.992;9.228;2022-09-25T06:35:24;100017.06;;;13.11;100.00
21504;BME280;10913;51.992;9.228;2022-09-25T06:37:53;100017.88;;;13.15;100.00
21504;BME280;10913;51.992;9.228;2022-09-25T06:40:20;100017.78;;;13.19;100.00
21504;BME280;10913;51.992;9.228;2022-09-25T06:42:45;100019.47;;;13.23;100.00
21504;BME280;10913;51.992;9.228;2022-09-25T06:45:11;100015.78;;;13.30;100.00
21504;BME280;10913;51.992;9.228;2022-09-25T06:47:36;100014.66;;;13.40;100.00
21504;BME280;10913;51.992;9.228;2022-09-25T06:50:02;100019.69;;;13.53;100.00
21504;BME280;10913;51.992;9.228;2022-09-25T06:52:27;100017.50;;;13.70;100.00
21504;BME280;10913;51.992;9.228;2022-09-25T06:54:53;100012.50;;;13.93;100.00
21504;BME280;10913;51.992;9.228;2022-09-25T06:57:18;100011.47;;;14.33;100.00
21504;BME280;10913;51.992;9.228;2022-09-25T06:59:44;100016.06;;;14.60;100.00
21504;BME280;10913;51.992;9.228;2022-09-25T07:02:10;100020.31;;;14.67;100.00
21504;BME280;10913;51.992;9.228;2022-09-25T07:04:54;100020.22;;;14.70;100.00
21504;BME280;10913;51.992;9.228;2022-09-25T07:07:19;100027.44;;;14.65;100.00
21504;BME280;10913;51.992;9.228;2022-09-25T07:09:45;100025.91;;;14.58;100.00
21504;BME280;10913;51.992;9.228;2022-09-25T07:12:13;100022.56;;;14.50;100.00
21504;BME280;10913;51.992;9.228;2022-09-25T07:14:39;100020.97;;;14.43;100.00
21504;BME280;10913;51.992;9.228;2022-09-25T07:17:08;100020.38;;;14.32;100.00
21504;BME280;10913;51.992;9.228;2022-09-25T07:19:33;100016.19;;;14.22;100.00
21504;BME280;10913;51.992;9.228;2022-09-25T07:21:58;100011.09;;;14.14;100.00
21504;BME280;10913;51.992;9.228;2022-09-25T07:24:24;100013.09;;;14.04;100.00
21504;BME280;10913;51.992;9.228;2022-09-25T07:26:50;100011.44;;;14.00;100.00
21504;BME280;10913;51.992;9.228;2022-09-25T07:29:17;100021.28;;;13.97;100.00
21504;BME280;10913;51.992;9.228;2022-09-25T07:31:43;100021.31;;;13.95;100.00
21504;BME280;10913;51.992;9.228;2022-09-25T07:34:08;100022.25;;;13.93;100.00
21504;BME280;10913;51.992;9.228;2022-09-25T07:36:35;100025.78;;;13.93;100.00
21504;BME280;10913;51.992;9.228;2022-09-25T07:39:02;100032.03;;;13.91;100.00
21504;BME280;10913;51.992;9.228;2022-09-25T07:41:28;100029.44;;;13.89;100.00
21504;BME280;10913;51.992;9.228;2022-09-25T07:43:55;100036.56;;;13.87;100.00
21504;BME280;10913;51.992;9.228;2022-09-25T07:46:22;100032.16;;;13.86;100.00
21504;BME280;10913;51.992;9.228;2022-09-25T07:48:48;100034.91;;;13.82;100.00
21504;BME280;10913;51.992;9.228;2022-09-25T07:51:14;100031.41;;;13.79;100.00
21504;BME280;10913;51.992;9.228;2022-09-25T07:53:39;100034.91;;;13.82;100.00
21504;BME280;10913;51.992;9.228;2022-09-25T07:56:05;100041.94;;;13.84;100.00
21504;BME280;10913;51.992;9.228;2022-09-25T07:58:31;100036.63;;;13.84;100.00
21504;BME280;10913;51.992;9.228;2022-09-25T08:01:01;100049.00;;;13.85;100.00
21504;BME280;10913;51.992;9.228;2022-09-25T08:03:27;100044.53;;;13.87;100.00
21504;BME280;10913;51.992;9.228;2022-09-25T08:08:22;100046.09;;;13.96;100.00
21504;BME280;10913;51.992;9.228;2022-09-25T08:10:47;100036.94;;;14.07;100.00
21504;BME280;10913;51.992;9.228;2022-09-25T08:13:13;100045.16;;;14.32;100.00
21504;BME280;10913;51.992;9.228;2022-09-25T08:15:39;100040.88;;;14.61;100.00
21504;BME280;10913;51.992;9.228;2022-09-25T08:18:04;100049.50;;;15.00;100.00
21504;BME280;10913;51.992;9.228;2022-09-25T08:20:30;100052.78;;;15.39;100.00
21504;BME280;10913;51.992;9.228;2022-09-25T08:22:55;100047.63;;;15.64;99.32
21504;BME280;10913;51.992;9.228;2022-09-25T08:25:21;100042.66;;;15.79;98.39
21504;BME280;10913;51.992;9.228;2022-09-25T08:27:46;100043.31;;;15.88;98.05
21504;BME280;10913;51.992;9.228;2022-09-25T08:30:12;100046.94;;;15.85;98.11
21504;BME280;10913;51.992;9.228;2022-09-25T08:32:38;100051.66;;;15.77;97.58
21504;BME280;10913;51.992;9.228;2022-09-25T08:35:04;100053.59;;;15.72;98.41
21504;BME280;10913;51.992;9.228;2022-09-25T08:37:29;100042.00;;;15.73;98.61
21504;BME280;10913;51.992;9.228;2022-09-25T08:39:58;100049.38;;;15.65;98.93
21504;BME280;10913;51.992;9.228;2022-09-25T08:42:31;100052.34;;;15.56;98.83
21504;BME280;10913;51.992;9.228;2022-09-25T08:45:02;100060.66;;;15.43;99.27
21504;BME280;10913;51.992;9.228;2022-09-25T08:47:50;100053.53;;;15.44;99.84
21504;BME280;10913;51.992;9.228;2022-09-25T08:50:35;100056.88;;;15.50;99.15
21504;BME280;10913;51.992;9.228;2022-09-25T08:53:08;100054.69;;;15.65;97.68
21504;BME280;10913;51.992;9.228;2022-09-25T08:55:39;100050.88;;;16.00;97.06
21504;BME280;10913;51.992;9.228;2022-09-25T08:58:38;100044.00;;;16.72;96.09
21504;BME280;10913;51.992;9.228;2022-09-25T09:01:11;100045.31;;;17.32;93.33
21504;BME280;10913;51.992;9.228;2022-09-25T09:03:45;100040.31;;;17.46;89.39
21504;BME280;10913;51.992;9.228;2022-09-25T09:06:14;100042.81;;;17.50;88.74
21504;BME280;10913;51.992;9.228;2022-09-25T09:08:44;100038.56;;;17.68;87.45
21504;BME280;10913;51.992;9.228;2022-09-25T09:11:22;100035.41;;;17.80;87.43
21504;BME280;10913;51.992;9.228;2022-09-25T09:18:47;100035.13;;;19.30;82.64
21504;BME280;10913;51.992;9.228;2022-09-25T09:26:20;100037.28;;;18.20;84.68
21504;BME280;10913;51.992;9.228;2022-09-25T09:29:17;100039.44;;;17.69;86.29
21504;BME280;10913;51.992;9.228;2022-09-25T09:31:47;100038.94;;;17.36;87.48
21504;BME280;10913;51.992;9.228;2022-09-25T09:37:48;100041.88;;;17.05;88.38
21504;BME280;10913;51.992;9.228;2022-09-25T09:47:58;100039.75;;;17.83;83.26
21504;BME280;10913;51.992;9.228;2022-09-25T09:50:46;100037.13;;;18.03;82.43
21504;BME280;10913;51.992;9.228;2022-09-25T09:55:47;100042.97;;;18.13;81.95
21504;BME280;10913;51.992;9.228;2022-09-25T09:58:58;100031.56;;;18.50;81.71
21504;BME280;10913;51.992;9.228;2022-09-25T10:01:25;100030.25;;;18.80;80.50
21504;BME280;10913;51.992;9.228;2022-09-25T10:04:06;100031.41;;;19.14;79.46
21504;BME280;10913;51.992;9.228;2022-09-25T10:06:36;100022.88;;;19.43;78.25
21504;BME280;10913;51.992;9.228;2022-09-25T10:09:03;100016.16;;;19.72;77.66
21504;BME280;10913;51.992;9.228;2022-09-25T10:11:30;100017.06;;;19.90;76.41
21504;BME280;10913;51.992;9.228;2022-09-25T10:13:57;100011.72;;;20.07;75.88
21504;BME280;10913;51.992;9.228;2022-09-25T10:16:26;100017.72;;;20.29;75.13
21504;BME280;10913;51.992;9.228;2022-09-25T10:19:05;100011.44;;;20.48;74.19
21504;BME280;10913;51.992;9.228;2022-09-25T10:22:04;100015.53;;;20.72;73.01
21504;BME280;10913;51.992;9.228;2022-09-25T10:24:54;100022.44;;;20.93;72.29
21504;BME280;10913;51.992;9.228;2022-09-25T10:32:26;100020.88;;;20.89;71.79
21504;BME280;10913;51.992;9.228;2022-09-25T10:34:52;100024.13;;;20.79;73.17
21504;BME280;10913;51.992;9.228;2022-09-25T10:37:19;100019.28;;;20.52;72.67
21504;BME280;10913;51.992;9.228;2022-09-25T10:40:06;100017.81;;;20.11;73.70
21504;BME280;10913;51.992;9.228;2022-09-25T10:42:40;100018.91;;;19.71;74.48
21504;BME280;10913;51.992;9.228;2022-09-25T10:45:31;100027.06;;;19.30;76.12
21504;BME280;10913;51.992;9.228;2022-09-25T10:47:57;100025.09;;;18.96;77.85
21504;BME280;10913;51.992;9.228;2022-09-25T10:50:41;100023.56;;;18.70;78.78
21504;BME280;10913;51.992;9.228;2022-09-25T10:53:23;100015.47;;;18.51;79.92
21504;BME280;10913;51.992;9.228;2022-09-25T10:55:59;100017.41;;;18.48;80.12
21504;BME280;10913;51.992;9.228;2022-09-25T10:58:53;100014.41;;;18.55;79.57
21504;BME280;10913;51.992;9.228;2022-09-25T11:01:29;100009.72;;;18.61;79.25
21504;BME280;10913;51.992;9.228;2022-09-25T11:03:56;100011.78;;;18.54;77.73
21504;BME280;10913;51.992;9.228;2022-09-25T11:08:55;100008.59;;;18.66;77.81
21504;BME280;10913;51.992;9.228;2022-09-25T11:11:23;100002.78;;;18.77;78.12
21504;BME280;10913;51.992;9.228;2022-09-25T11:13:54;100004.22;;;18.84;77.97
21504;BME280;10913;51.992;9.228;2022-09-25T11:16:40;99999.16;;;18.78;76.67
21504;BME280;10913;51.992;9.228;2022-09-25T11:19:12;100002.03;;;18.73;75.74
21504;BME280;10913;51.992;9.228;2022-09-25T11:21:45;99996.16;;;18.65;76.42
21504;BME280;10913;51.992;9.228;2022-09-25T11:24:28;99996.41;;;18.59;75.82
21504;BME280;10913;51.992;9.228;2022-09-25T11:27:16;99990.50;;;18.51;75.81
21504;BME280;10913;51.992;9.228;2022-09-25T11:38:11;99989.50;;;18.33;76.45
21504;BME280;10913;51.992;9.228;2022-09-25T11:40:47;99981.56;;;18.32;75.77
21504;BME280;10913;51.992;9.228;2022-09-25T11:43:38;99983.28;;;18.33;75.88
21504;BME280;10913;51.992;9.228;2022-09-25T11:46:30;99980.50;;;18.36;75.66
21504;BME280;10913;51.992;9.228;2022-09-25T11:49:20;99969.50;;;18.42;76.12
21504;BME280;10913;51.992;9.228;2022-09-25T11:52:07;99970.84;;;18.52;76.81
21504;BME280;10913;51.992;9.228;2022-09-25T12:00:42;99965.13;;;18.80;75.58
21504;BME280;10913;51.992;9.228;2022-09-25T12:08:44;99963.63;;;18.74;76.45
21504;BME280;10913;51.992;9.228;2022-09-25T12:14:09;99958.94;;;18.59;77.08
21504;BME280;10913;51.992;9.228;2022-09-25T12:19:40;99958.94;;;18.39;76.36
21504;BME280;10913;51.992;9.228;2022-09-25T12:25:26;99953.19;;;18.48;77.38
21504;BME280;10913;51.992;9.228;2022-09-25T12:42:11;99935.94;;;18.94;74.90
21504;BME280;10913;51.992;9.228;2022-09-25T12:54:00;99932.47;;;18.53;77.35
21504;BME280;10913;51.992;9.228;2022-09-25T12:56:44;99929.38;;;18.42;78.24
21504;BME280;10913;51.992;9.228;2022-09-25T12:59:18;99930.75;;;18.32;78.95
21504;BME280;10913;51.992;9.228;2022-09-25T13:01:56;99924.97;;;18.20;78.30
21504;BME280;10913;51.992;9.228;2022-09-25T13:09:31;99923.78;;;18.07;78.67
21504;BME280;10913;51.992;9.228;2022-09-25T13:12:07;99918.50;;;18.06;78.77
21504;BME280;10913;51.992;9.228;2022-09-25T13:14:47;99921.38;;;18.01;78.52
21504;BME280;10913;51.992;9.228;2022-09-25T13:17:16;99910.91;;;17.97;78.19
21504;BME280;10913;51.992;9.228;2022-09-25T13:19:42;99917.19;;;17.96;78.79
21504;BME280;10913;51.992;9.228;2022-09-25T13:22:21;99913.81;;;17.90;79.17
21504;BME280;10913;51.992;9.228;2022-09-25T13:25:11;99914.81;;;17.88;79.47
21504;BME280;10913;51.992;9.228;2022-09-25T13:27:42;99911.47;;;17.83;79.41
21504;BME280;10913;51.992;9.228;2022-09-25T13:32:52;99918.56;;;17.84;80.37
21504;BME280;10913;51.992;9.228;2022-09-25T13:35:19;99918.44;;;17.87;80.55
21504;BME280;10913;51.992;9.228;2022-09-25T13:37:47;99917.56;;;17.86;80.60
21504;BME280;10913;51.992;9.228;2022-09-25T13:40:24;99912.97;;;17.90;80.74
21504;BME280;10913;51.992;9.228;2022-09-25T13:48:34;99913.56;;;17.97;80.46
21504;BME280;10913;51.992;9.228;2022-09-25T14:01:45;99897.78;;;18.31;79.67
21504;BME280;10913;51.992;9.228;2022-09-25T14:06:41;99898.00;;;18.45;80.33
21504;BME280;10913;51.992;9.228;2022-09-25T14:09:10;99895.81;;;18.55;79.41
21504;BME280;10913;51.992;9.228;2022-09-25T14:11:37;99886.16;;;18.51;78.70
21504;BME280;10913;51.992;9.228;2022-09-25T14:14:09;99893.13;;;18.55;78.14
21504;BME280;10913;51.992;9.228;2022-09-25T14:16:50;99888.59;;;18.57;78.79
21504;BME280;10913;51.992;9.228;2022-09-25T14:19:20;99884.09;;;18.57;78.70
21504;BME280;10913;51.992;9.228;2022-09-25T14:21:49;99889.66;;;18.53;78.62
21504;BME280;10913;51.992;9.228;2022-09-25T14:24:26;99876.41;;;18.50;77.95
21504;BME280;10913;51.992;9.228;2022-09-25T14:26:54;99882.84;;;18.46;77.58
21504;BME280;10913;51.992;9.228;2022-09-25T14:29:40;99879.50;;;18.41;77.49
21504;BME280;10913;51.992;9.228;2022-09-25T14:40:33;99875.34;;;18.15;78.02
21504;BME280;10913;51.992;9.228;2022-09-25T14:46:13;99874.00;;;18.05;78.21
21504;BME280;10913;51.992;9.228;2022-09-25T14:49:31;99872.53;;;17.98;78.94
21504;BME280;10913;51.992;9.228;2022-09-25T14:52:01;99871.66;;;17.77;78.87
21504;BME280;10913;51.992;9.228;2022-09-25T14:54:30;99875.47;;;17.71;79.53
21504;BME280;10913;51.992;9.228;2022-09-25T14:56:57;99872.25;;;17.62;79.76
21504;BME280;10913;51.992;9.228;2022-09-25T14:59:38;99867.25;;;17.54;80.16
21504;BME280;10913;51.992;9.228;2022-09-25T15:02:29;99867.81;;;17.40;80.10
21504;BME280;10913;51.992;9.228;2022-09-25T15:05:23;99870.38;;;17.43;79.32
21504;BME280;10913;51.992;9.228;2022-09-25T15:07:53;99867.16;;;17.35;79.62
21504;BME280;10913;51.992;9.228;2022-09-25T15:10:32;99861.94;;;17.32;79.51
21504;BME280;10913;51.992;9.228;2022-09-25T15:13:18;99855.84;;;17.29;79.44
21504;BME280;10913;51.992;9.228;2022-09-25T15:15:50;99865.78;;;17.25;79.08
21504;BME280;10913;51.992;9.228;2022-09-25T15:18:37;99862.31;;;17.23;78.96
21504;BME280;10913;51.992;9.228;2022-09-25T15:21:07;99864.97;;;17.23;79.08
21504;BME280;10913;51.992;9.228;2022-09-25T15:23:35;99866.19;;;17.16;79.64
21504;BME280;10913;51.992;9.228;2022-09-25T15:26:02;99867.28;;;17.10;79.62
21504;BME280;10913;51.992;9.228;2022-09-25T15:28:31;99875.47;;;17.06;79.10
21504;BME280;10913;51.992;9.228;2022-09-25T15:31:04;99877.59;;;16.98;79.29
21504;BME280;10913;51.992;9.228;2022-09-25T15:33:35;99877.03;;;16.90;79.50
21504;BME280;10913;51.992;9.228;2022-09-25T15:36:21;99878.19;;;16.82;79.36
21504;BME280;10913;51.992;9.228;2022-09-25T15:39:02;99880.03;;;16.80;79.55
21504;BME280;10913;51.992;9.228;2022-09-25T15:41:34;99883.72;;;16.78;79.71